Terminal Aerodrome Forecast
Issued by NWS

Home | Current Version | Previous Version | Text Only | Print | Product List | Glossary On
Versions: 1 2 3 4 5 6 7 8 9 10 11 12 13 14 15 16 17 18 19 20 21 22 23 24
000
FTUS44 KLIX 071129
TAFHUM
TAF
KHUM 071129Z 0712/0812 00000KT P6SM SCT024
     FM071430 17009KT P6SM SCT045
     FM080100 16005KT P6SM SCT250
      TEMPO 0808/0812 3SM BR BKN003=

USA.gov is the U.S. government's official web portal to all federal, state and local government web resources and services.